Blaine, Washington
Current Conditions -  °F | °C
As of 12:53 PM on Thursday 18 Dec 2014 (Local Time) from KBLI Reporting Station
Overcast Overcast  
Wind Chill: 42°   Ceiling: 3800
Heat Index: 46°   Visibility: 10mi
Dew Point: 42°   Wind: 8mph
Humidity: 86%   Direction: 20°NNE
Pressure: 29.82"   Gusts: NA
Location:  48.99°N, 122.74°W
Report Text: KBLI 182053Z AUTO 02007KT 10SM OVC038 08/06 A2982 RMK AO2 SLP107 T00780056 58026
Loading
Personal Weather Stations






























Interactive Weather Map New forecast layout! Learn more

10-Day Weather Forecast

Advertisements
Track Severe Weather on mobile